Time;durP1;ratioP1;P1;durP2;ratioP2;P2;SDS_P1;SDS_P2;PMS_P1;PMS_P2;Temp;Humidity;BMP_temperature;BMP_pressure;BME280_temperature;BME280_humidity;BME280_pressure;Samples;Min_cycle;Max_cycle;Signal;HPM_P1;HPM_P2
2024/03/27 00:00:13;;;;;;;24.92;17.60;;;;;;;;;;10021561;28;20056;-70
2024/03/27 00:05:06;;;;;;;33.20;23.80;;;;;;;;;;10047556;28;20091;-71
2024/03/27 00:09:58;;;;;;;38.95;26.13;;;;;;;;;;10044440;28;20083;-71
2024/03/27 00:14:51;;;;;;;24.60;19.50;;;;;;;;;;10049922;28;20057;-71
2024/03/27 00:19:43;;;;;;;19.23;15.90;;;;;;;;;;10016988;28;20100;-71
2024/03/27 00:24:36;;;;;;;23.05;17.70;;;;;;;;;;10042994;28;20114;-71
2024/03/27 00:29:29;;;;;;;17.83;15.27;;;;;;;;;;10045196;28;20053;-71
2024/03/27 00:34:21;;;;;;;21.92;15.80;;;;;;;;;;10041172;28;20121;-71
2024/03/27 00:39:14;;;;;;;16.08;13.75;;;;;;;;;;10042347;28;20049;-72
2024/03/27 00:44:26;;;;;;;14.95;12.15;;;;;;;;;;10065087;28;20048;-70
2024/03/27 00:49:19;;;;;;;15.25;13.00;;;;;;;;;;10038878;28;20049;-71
2024/03/27 00:54:11;;;;;;;15.68;12.00;;;;;;;;;;10041266;28;20453;-71
2024/03/27 00:59:04;;;;;;;17.88;15.15;;;;;;;;;;10049800;28;20490;-71
2024/03/27 01:03:56;;;;;;;22.98;18.02;;;;;;;;;;10048126;28;20041;-71
2024/03/27 01:08:49;;;;;;;21.25;18.15;;;;;;;;;;10046829;28;20057;-70
2024/03/27 01:13:41;;;;;;;21.83;16.85;;;;;;;;;;10047199;28;20057;-71
2024/03/27 01:18:34;;;;;;;21.88;14.95;;;;;;;;;;10046364;28;20037;-70
2024/03/27 01:23:26;;;;;;;22.23;17.00;;;;;;;;;;10044477;28;20056;-70
2024/03/27 01:28:19;;;;;;;36.97;20.30;;;;;;;;;;10036377;28;21851;-71
2024/03/27 01:33:11;;;;;;;37.42;21.17;;;;;;;;;;10038427;28;20128;-71
2024/03/27 01:38:05;;;;;;;55.78;24.88;;;;;;;;;;10030718;28;20060;-71
2024/03/27 01:43:01;;;;;;;60.03;27.80;;;;;;;;;;10033351;28;20060;-72
2024/03/27 01:47:53;;;;;;;43.13;23.67;;;;;;;;;;10041959;28;20459;-73
2024/03/27 01:52:46;;;;;;;40.65;21.50;;;;;;;;;;10041441;28;20409;-73
2024/03/27 01:57:38;;;;;;;56.38;27.50;;;;;;;;;;10044827;28;20076;-72
2024/03/27 02:02:30;;;;;;;40.25;22.80;;;;;;;;;;10042516;28;20425;-72
2024/03/27 02:07:24;;;;;;;37.28;19.88;;;;;;;;;;10041795;28;20057;-72
2024/03/27 02:12:18;;;;;;;42.00;23.17;;;;;;;;;;10043186;28;20106;-73
2024/03/27 02:17:10;;;;;;;32.25;21.65;;;;;;;;;;10044219;28;20049;-72
2024/03/27 02:22:03;;;;;;;33.47;19.40;;;;;;;;;;10042556;28;20056;-72
2024/03/27 02:26:56;;;;;;;30.83;19.83;;;;;;;;;;10041270;28;20064;-72
2024/03/27 02:31:48;;;;;;;43.95;21.10;;;;;;;;;;10028657;28;20033;-72
2024/03/27 02:36:41;;;;;;;26.38;19.20;;;;;;;;;;10046916;28;20554;-73
2024/03/27 02:41:33;;;;;;;40.80;20.55;;;;;;;;;;10046828;28;20107;-73
2024/03/27 02:46:25;;;;;;;24.75;18.25;;;;;;;;;;10050038;28;20052;-73
2024/03/27 02:51:18;;;;;;;28.42;20.05;;;;;;;;;;10051268;28;20520;-72
2024/03/27 02:56:10;;;;;;;26.02;20.45;;;;;;;;;;10050635;28;20052;-72
2024/03/27 03:01:03;;;;;;;27.75;19.77;;;;;;;;;;10051698;28;20049;-72
2024/03/27 03:05:56;;;;;;;22.48;18.15;;;;;;;;;;10047494;28;20049;-72
2024/03/27 03:10:53;;;;;;;24.80;17.98;;;;;;;;;;10052223;28;20048;-72
2024/03/27 03:15:45;;;;;;;43.50;23.70;;;;;;;;;;10047533;28;20140;-72
2024/03/27 03:20:38;;;;;;;39.47;25.27;;;;;;;;;;10052259;28;20140;-72
2024/03/27 03:25:31;;;;;;;43.35;28.77;;;;;;;;;;10050599;28;20394;-72
2024/03/27 03:30:24;;;;;;;43.75;29.00;;;;;;;;;;10037695;28;20050;-72
2024/03/27 03:35:17;;;;;;;45.33;30.17;;;;;;;;;;10044792;28;20061;-72
2024/03/27 03:40:12;;;;;;;51.45;34.88;;;;;;;;;;10050256;28;20053;-72
2024/03/27 03:45:06;;;;;;;65.18;38.47;;;;;;;;;;10039606;28;20042;-72
2024/03/27 03:49:59;;;;;;;61.95;34.72;;;;;;;;;;10049860;28;20390;-71
2024/03/27 03:54:51;;;;;;;68.35;37.75;;;;;;;;;;10048067;28;20059;-72
2024/03/27 03:59:44;;;;;;;52.25;29.67;;;;;;;;;;10043393;28;20080;-72
2024/03/27 04:04:36;;;;;;;36.80;23.65;;;;;;;;;;10044026;28;20057;-72
2024/03/27 04:09:31;;;;;;;40.20;23.60;;;;;;;;;;10048108;28;20037;-72
2024/03/27 04:14:24;;;;;;;40.35;25.20;;;;;;;;;;10038307;28;20505;-72
2024/03/27 04:19:17;;;;;;;43.58;25.70;;;;;;;;;;10044216;28;20080;-73
2024/03/27 04:24:09;;;;;;;52.13;26.13;;;;;;;;;;10036315;28;20056;-72
2024/03/27 04:29:02;;;;;;;43.40;24.67;;;;;;;;;;10034754;28;20053;-73
2024/03/27 04:33:55;;;;;;;62.63;30.13;;;;;;;;;;10048064;28;20424;-73
2024/03/27 04:38:48;;;;;;;52.25;31.15;;;;;;;;;;10029765;28;20617;-72
2024/03/27 04:43:41;;;;;;;51.80;32.25;;;;;;;;;;10044248;28;20421;-72
2024/03/27 04:48:33;;;;;;;45.38;29.35;;;;;;;;;;10047312;28;20482;-72
2024/03/27 04:53:26;;;;;;;43.65;30.35;;;;;;;;;;10047509;28;20417;-72
2024/03/27 04:58:18;;;;;;;45.63;27.35;;;;;;;;;;10044022;28;20057;-72
2024/03/27 05:03:11;;;;;;;37.22;23.75;;;;;;;;;;10047092;28;20050;-71
2024/03/27 05:08:05;;;;;;;36.00;24.73;;;;;;;;;;10045732;28;20053;-71
2024/03/27 05:12:57;;;;;;;36.33;25.60;;;;;;;;;;10046643;28;20045;-71
2024/03/27 05:17:50;;;;;;;52.15;28.90;;;;;;;;;;10044629;28;20064;-71
2024/03/27 05:22:43;;;;;;;41.30;27.30;;;;;;;;;;10047411;28;20107;-71
2024/03/27 05:27:35;;;;;;;49.65;29.77;;;;;;;;;;10038280;28;20045;-71
2024/03/27 05:32:29;;;;;;;50.40;28.15;;;;;;;;;;10047438;28;20371;-72
2024/03/27 05:37:22;;;;;;;59.08;33.15;;;;;;;;;;10041384;28;20046;-72
2024/03/27 05:42:14;;;;;;;53.10;29.08;;;;;;;;;;10042147;28;20050;-72
2024/03/27 05:47:07;;;;;;;53.60;33.92;;;;;;;;;;10031529;28;20516;-72
2024/03/27 05:51:59;;;;;;;53.05;33.58;;;;;;;;;;10037824;28;20038;-71
2024/03/27 05:56:52;;;;;;;46.00;30.48;;;;;;;;;;10037803;28;20045;-72
2024/03/27 06:01:45;;;;;;;43.80;28.13;;;;;;;;;;10046566;28;20041;-72
2024/03/27 06:06:37;;;;;;;50.15;31.38;;;;;;;;;;10037187;28;20521;-72
2024/03/27 06:11:30;;;;;;;41.35;26.50;;;;;;;;;;10037974;28;20065;-71
2024/03/27 06:16:24;;;;;;;44.85;25.88;;;;;;;;;;10045478;28;20054;-71
2024/03/27 06:21:20;;;;;;;38.28;23.35;;;;;;;;;;10043702;28;20136;-71
2024/03/27 06:26:12;;;;;;;42.53;22.55;;;;;;;;;;10023008;28;20054;-71
2024/03/27 06:31:08;;;;;;;42.70;26.73;;;;;;;;;;10035355;28;20616;-70
2024/03/27 06:36:01;;;;;;;47.63;25.50;;;;;;;;;;10047351;28;20045;-71
2024/03/27 06:40:57;;;;;;;45.47;28.30;;;;;;;;;;10040318;28;20116;-71
2024/03/27 06:45:52;;;;;;;46.85;29.83;;;;;;;;;;10043058;28;20052;-72
2024/03/27 06:50:54;;;;;;;62.28;34.60;;;;;;;;;;10021257;28;20045;-72
2024/03/27 06:55:46;;;;;;;51.80;32.42;;;;;;;;;;10043388;28;20053;-72
2024/03/27 07:00:40;;;;;;;61.65;36.75;;;;;;;;;;10043473;28;20453;-72
2024/03/27 07:05:52;;;;;;;49.03;31.80;;;;;;;;;;10038470;28;20054;-69
2024/03/27 07:10:45;;;;;;;55.85;35.13;;;;;;;;;;10026632;28;20486;-69
2024/03/27 07:15:37;;;;;;;63.38;38.55;;;;;;;;;;10038803;28;20136;-69
2024/03/27 07:20:30;;;;;;;51.78;34.83;;;;;;;;;;10037888;28;20053;-69
2024/03/27 07:25:23;;;;;;;50.72;33.22;;;;;;;;;;10045891;28;20045;-70
2024/03/27 07:30:15;;;;;;;60.92;37.63;;;;;;;;;;10041439;28;20053;-69
2024/03/27 07:35:09;;;;;;;70.60;41.05;;;;;;;;;;10050658;28;20073;-69
2024/03/27 07:40:01;;;;;;;64.05;36.38;;;;;;;;;;10046610;28;20160;-69
2024/03/27 07:44:53;;;;;;;63.90;34.75;;;;;;;;;;10049350;28;20045;-69
2024/03/27 07:49:45;;;;;;;46.13;30.20;;;;;;;;;;10046992;28;20088;-71
2024/03/27 07:54:38;;;;;;;51.10;32.58;;;;;;;;;;10049014;28;20046;-71
2024/03/27 07:59:31;;;;;;;52.33;36.03;;;;;;;;;;10040150;28;20081;-71
2024/03/27 08:04:23;;;;;;;56.42;35.72;;;;;;;;;;10046676;28;20425;-71
2024/03/27 08:09:18;;;;;;;68.45;39.58;;;;;;;;;;10040329;28;20335;-71
2024/03/27 08:14:10;;;;;;;63.58;39.47;;;;;;;;;;10043695;28;20136;-71
2024/03/27 08:19:03;;;;;;;77.70;42.28;;;;;;;;;;10045311;28;20073;-71
2024/03/27 08:23:58;;;;;;;77.43;42.47;;;;;;;;;;10042215;28;20052;-71
2024/03/27 08:28:50;;;;;;;60.67;37.45;;;;;;;;;;10043997;28;20046;-70
2024/03/27 08:33:44;;;;;;;55.00;32.40;;;;;;;;;;10043004;28;20068;-71
2024/03/27 08:38:37;;;;;;;61.80;36.00;;;;;;;;;;10042698;28;20068;-69
2024/03/27 08:43:29;;;;;;;49.50;31.50;;;;;;;;;;10043483;28;20507;-69
2024/03/27 08:48:22;;;;;;;48.90;31.73;;;;;;;;;;10044996;28;20056;-68
2024/03/27 08:53:15;;;;;;;54.72;31.42;;;;;;;;;;10045224;28;20136;-69
2024/03/27 08:58:08;;;;;;;57.30;34.65;;;;;;;;;;10046072;28;20445;-71
2024/03/27 09:03:01;;;;;;;49.65;33.30;;;;;;;;;;10035867;28;20041;-68
2024/03/27 09:07:54;;;;;;;48.95;32.03;;;;;;;;;;10044858;28;20395;-68
2024/03/27 09:12:47;;;;;;;61.70;37.92;;;;;;;;;;10033343;28;20049;-68
2024/03/27 09:17:39;;;;;;;56.40;29.05;;;;;;;;;;10045302;28;20448;-71
2024/03/27 09:22:35;;;;;;;53.88;32.75;;;;;;;;;;10041674;28;20064;-71
2024/03/27 09:27:27;;;;;;;48.15;28.85;;;;;;;;;;10044700;28;20099;-71
2024/03/27 09:32:23;;;;;;;45.63;27.95;;;;;;;;;;10043496;28;20049;-70
2024/03/27 09:37:16;;;;;;;44.80;27.80;;;;;;;;;;10042717;28;20413;-71
2024/03/27 09:42:08;;;;;;;47.92;29.15;;;;;;;;;;10045815;28;20132;-69
2024/03/27 09:47:01;;;;;;;51.83;30.35;;;;;;;;;;10037734;28;20061;-68
2024/03/27 09:51:59;;;;;;;50.03;29.67;;;;;;;;;;10044751;28;20569;-68
2024/03/27 09:56:53;;;;;;;40.33;28.88;;;;;;;;;;10040619;28;20128;-69
2024/03/27 10:01:56;;;;;;;44.63;26.60;;;;;;;;;;10034665;28;20045;-69
2024/03/27 10:06:50;;;;;;;36.53;24.15;;;;;;;;;;10042268;28;20111;-69
2024/03/27 10:11:42;;;;;;;36.75;24.13;;;;;;;;;;10039292;28;20049;-68
2024/03/27 10:16:35;;;;;;;36.85;23.58;;;;;;;;;;10040840;28;20053;-71
2024/03/27 10:21:28;;;;;;;32.38;22.55;;;;;;;;;;10044972;28;20038;-69
2024/03/27 10:26:21;;;;;;;33.70;22.85;;;;;;;;;;10040935;28;20045;-69
2024/03/27 10:31:13;;;;;;;40.53;26.13;;;;;;;;;;10044241;28;20044;-69
2024/03/27 10:36:08;;;;;;;41.60;27.10;;;;;;;;;;10042729;28;20123;-69
2024/03/27 10:41:05;;;;;;;36.53;27.02;;;;;;;;;;10027699;28;20052;-69
2024/03/27 10:46:00;;;;;;;32.38;23.38;;;;;;;;;;10035470;28;20395;-69
2024/03/27 10:50:54;;;;;;;32.17;23.17;;;;;;;;;;10036866;28;20450;-70
2024/03/27 10:55:47;;;;;;;35.83;22.02;;;;;;;;;;10023367;28;20489;-70
2024/03/27 11:00:40;;;;;;;32.10;22.55;;;;;;;;;;10047611;28;20441;-70
2024/03/27 11:05:32;;;;;;;29.13;22.23;;;;;;;;;;10047236;28;20059;-70
2024/03/27 11:10:25;;;;;;;30.92;23.55;;;;;;;;;;10044642;28;20064;-70
2024/03/27 11:15:18;;;;;;;33.33;27.00;;;;;;;;;;10045693;28;20444;-70
2024/03/27 11:20:14;;;;;;;26.48;22.17;;;;;;;;;;10045790;28;20103;-70
2024/03/27 11:25:10;;;;;;;28.00;23.30;;;;;;;;;;10050198;28;20083;-70
2024/03/27 11:30:03;;;;;;;5.55;4.70;;;;;;;;;;10065798;28;20050;-70
2024/03/27 11:34:54;;;;;;;2.25;2.00;;;;;;;;;;10047649;28;20047;-70
2024/03/27 11:39:47;;;;;;;1.20;1.08;;;;;;;;;;10046180;28;20073;-70
2024/03/27 11:44:40;;;;;;;17.90;8.27;;;;;;;;;;10044363;28;20505;-71
2024/03/27 11:49:31;;;;;;;2.25;1.50;;;;;;;;;;10040274;28;20077;-71
2024/03/27 11:54:27;;;;;;;1.10;1.00;;;;;;;;;;10045374;28;20128;-70
2024/03/27 11:59:20;;;;;;;2.40;1.70;;;;;;;;;;10049737;28;20052;-71
2024/03/27 12:04:12;;;;;;;3.15;1.15;;;;;;;;;;10041332;28;20053;-71
2024/03/27 12:09:05;;;;;;;2.03;1.20;;;;;;;;;;10036834;28;20387;-69
2024/03/27 12:13:58;;;;;;;2.20;1.75;;;;;;;;;;10047047;28;20065;-69
2024/03/27 12:18:50;;;;;;;1.85;1.20;;;;;;;;;;10048871;28;20046;-69
2024/03/27 12:23:43;;;;;;;2.47;1.50;;;;;;;;;;10042336;28;20498;-69
2024/03/27 12:28:36;;;;;;;3.65;2.92;;;;;;;;;;10044313;28;20394;-68
2024/03/27 12:33:28;;;;;;;2.50;1.75;;;;;;;;;;10048756;28;20049;-68
2024/03/27 12:38:20;;;;;;;0.85;0.85;;;;;;;;;;10030445;28;20033;-68
2024/03/27 12:43:13;;;;;;;1.15;1.10;;;;;;;;;;10044193;28;20421;-68
2024/03/27 12:48:06;;;;;;;7.55;4.88;;;;;;;;;;10047206;28;20049;-70
2024/03/27 12:52:58;;;;;;;3.08;2.17;;;;;;;;;;10047069;28;20424;-70
2024/03/27 12:57:52;;;;;;;1.40;1.30;;;;;;;;;;10043125;28;20048;-69
2024/03/27 13:02:44;;;;;;;2.40;1.00;;;;;;;;;;10046936;28;20056;-69
2024/03/27 13:07:37;;;;;;;1.92;1.33;;;;;;;;;;10047258;28;20095;-68
2024/03/27 13:12:30;;;;;;;45.22;29.08;;;;;;;;;;10041108;28;20041;-69
2024/03/27 13:17:22;;;;;;;2.97;2.05;;;;;;;;;;10045711;28;20057;-71
2024/03/27 13:22:15;;;;;;;1.13;1.00;;;;;;;;;;10044283;28;20045;-71
2024/03/27 13:27:08;;;;;;;6.55;4.07;;;;;;;;;;10046157;28;20057;-70
2024/03/27 13:32:01;;;;;;;0.80;0.80;;;;;;;;;;10045321;28;20049;-70
2024/03/27 13:36:53;;;;;;;2.55;1.50;;;;;;;;;;10046603;28;20095;-69
2024/03/27 13:41:46;;;;;;;2.15;1.48;;;;;;;;;;10042389;28;20045;-69
2024/03/27 13:46:39;;;;;;;2.00;1.77;;;;;;;;;;10044821;28;20080;-69
2024/03/27 13:51:31;;;;;;;2.80;2.47;;;;;;;;;;10035700;28;20124;-72
2024/03/27 13:56:23;;;;;;;5.75;4.10;;;;;;;;;;10044965;28;20053;-69
2024/03/27 14:01:17;;;;;;;3.72;2.22;;;;;;;;;;10040637;28;20061;-70
2024/03/27 14:06:10;;;;;;;0.63;0.60;;;;;;;;;;10044164;28;20149;-70
2024/03/27 14:11:04;;;;;;;0.50;0.50;;;;;;;;;;10037284;28;20124;-70
2024/03/27 14:15:57;;;;;;;2.78;2.00;;;;;;;;;;10036222;28;20239;-70
2024/03/27 14:20:49;;;;;;;6.95;5.55;;;;;;;;;;10042383;28;20046;-70
2024/03/27 14:25:42;;;;;;;3.60;2.92;;;;;;;;;;10039268;28;20049;-69
2024/03/27 14:30:35;;;;;;;0.90;0.90;;;;;;;;;;10043825;28;20049;-69
2024/03/27 14:35:27;;;;;;;8.07;6.05;;;;;;;;;;10044342;28;20045;-70
2024/03/27 14:40:19;;;;;;;2.83;1.10;;;;;;;;;;10042536;28;20127;-69
2024/03/27 14:45:12;;;;;;;14.52;9.45;;;;;;;;;;10040195;28;20057;-69
2024/03/27 14:50:06;;;;;;;2.53;1.00;;;;;;;;;;10037035;28;20053;-70
2024/03/27 14:54:59;;;;;;;2.00;1.48;;;;;;;;;;10037877;28;20050;-70
2024/03/27 14:59:52;;;;;;;3.33;1.35;;;;;;;;;;10042801;28;20172;-70
2024/03/27 15:04:45;;;;;;;1.60;1.20;;;;;;;;;;10039277;28;20514;-71
2024/03/27 15:09:37;;;;;;;6.13;1.70;;;;;;;;;;10038831;28;20071;-69
2024/03/27 15:14:31;;;;;;;4.57;1.63;;;;;;;;;;10027989;28;20339;-69
2024/03/27 15:19:23;;;;;;;1.23;1.20;;;;;;;;;;10040780;28;20057;-71
2024/03/27 15:24:16;;;;;;;1.65;1.00;;;;;;;;;;10035197;28;20136;-70
2024/03/27 15:29:11;;;;;;;1.58;1.10;;;;;;;;;;10043009;28;20154;-70
2024/03/27 15:34:03;;;;;;;2.50;1.48;;;;;;;;;;10040402;28;20059;-72
2024/03/27 15:38:55;;;;;;;4.80;2.13;;;;;;;;;;10042309;28;20401;-70
2024/03/27 15:43:47;;;;;;;2.60;0.90;;;;;;;;;;10038678;28;20045;-70
2024/03/27 15:50:47;;;;;;;10.25;6.55;;;;;;;;;;10084222;27;20419;-72
2024/03/27 15:55:40;;;;;;;1.92;1.77;;;;;;;;;;10125858;28;20051;-75
2024/03/27 16:00:33;;;;;;;4.60;2.13;;;;;;;;;;10101979;28;20049;-73
2024/03/27 16:05:25;;;;;;;1.05;0.80;;;;;;;;;;10102142;28;20045;-73
2024/03/27 16:10:18;;;;;;;1.80;1.08;;;;;;;;;;10113097;28;20057;-72
2024/03/27 16:15:11;;;;;;;6.88;4.15;;;;;;;;;;10104423;28;20049;-72
2024/03/27 16:20:06;;;;;;;2.25;1.98;;;;;;;;;;10107387;28;20048;-73
2024/03/27 16:24:58;;;;;;;1.83;1.25;;;;;;;;;;10102784;28;20049;-73
2024/03/27 16:29:51;;;;;;;4.47;1.92;;;;;;;;;;10107428;28;20076;-72
2024/03/27 16:34:46;;;;;;;2.90;2.35;;;;;;;;;;10102922;28;20052;-73
2024/03/27 16:39:39;;;;;;;3.33;2.60;;;;;;;;;;10094525;28;20443;-72
2024/03/27 16:44:31;;;;;;;3.10;2.80;;;;;;;;;;10082882;28;20059;-73
2024/03/27 16:49:25;;;;;;;3.40;2.78;;;;;;;;;;10067728;28;20171;-71
2024/03/27 16:54:18;;;;;;;9.77;6.75;;;;;;;;;;10058894;28;20057;-73
2024/03/27 16:59:10;;;;;;;12.73;6.95;;;;;;;;;;10058627;28;20394;-72
2024/03/27 17:04:03;;;;;;;3.85;2.03;;;;;;;;;;10033127;28;20103;-72
2024/03/27 17:08:56;;;;;;;5.28;1.65;;;;;;;;;;10033101;28;20148;-71
2024/03/27 17:13:48;;;;;;;6.88;2.10;;;;;;;;;;10033150;28;20501;-72
2024/03/27 17:18:41;;;;;;;9.13;3.28;;;;;;;;;;10023857;28;20056;-70
2024/03/27 17:23:33;;;;;;;5.03;2.42;;;;;;;;;;10033069;28;20519;-71
2024/03/27 17:28:25;;;;;;;1.85;1.15;;;;;;;;;;10037797;28;20045;-71
2024/03/27 17:33:18;;;;;;;6.25;1.00;;;;;;;;;;10037506;28;20042;-72
2024/03/27 17:38:10;;;;;;;4.03;2.53;;;;;;;;;;10026598;28;20497;-72
2024/03/27 17:43:04;;;;;;;2.40;1.70;;;;;;;;;;10034328;28;20045;-70
2024/03/27 17:47:56;;;;;;;60.53;7.90;;;;;;;;;;10042054;28;20057;-72
2024/03/27 17:52:48;;;;;;;3.67;2.50;;;;;;;;;;10071351;28;20045;-72
2024/03/27 17:57:41;;;;;;;5.47;2.22;;;;;;;;;;10076704;28;20124;-71
2024/03/27 18:02:36;;;;;;;4.40;3.63;;;;;;;;;;10068484;28;20049;-71
2024/03/27 18:07:28;;;;;;;2.85;2.05;;;;;;;;;;10062813;28;20045;-73
2024/03/27 18:12:21;;;;;;;2.75;1.67;;;;;;;;;;10054560;28;20056;-72
2024/03/27 18:17:14;;;;;;;6.47;3.97;;;;;;;;;;10074962;28;20053;-72
2024/03/27 18:22:06;;;;;;;4.43;2.40;;;;;;;;;;10059987;28;20045;-73
2024/03/27 18:26:59;;;;;;;9.90;6.80;;;;;;;;;;10066659;28;20049;-72
2024/03/27 18:31:51;;;;;;;4.78;1.58;;;;;;;;;;10067261;28;20041;-72
2024/03/27 18:36:44;;;;;;;4.70;3.28;;;;;;;;;;10068040;28;20037;-72
2024/03/27 18:41:35;;;;;;;8.35;4.93;;;;;;;;;;10072882;28;20049;-72
2024/03/27 18:46:28;;;;;;;22.25;9.35;;;;;;;;;;10066687;28;20056;-73
2024/03/27 18:51:21;;;;;;;12.75;7.55;;;;;;;;;;10072591;28;20056;-72
2024/03/27 18:56:13;;;;;;;11.43;5.30;;;;;;;;;;10068266;28;20076;-73
2024/03/27 19:01:07;;;;;;;6.57;4.50;;;;;;;;;;10073586;28;20409;-73
2024/03/27 19:05:59;;;;;;;7.85;5.03;;;;;;;;;;10066472;28;20052;-72
2024/03/27 19:10:52;;;;;;;12.73;10.15;;;;;;;;;;10079849;28;20048;-73
2024/03/27 19:15:45;;;;;;;19.05;8.63;;;;;;;;;;10073494;28;20118;-72
2024/03/27 19:20:43;;;;;;;45.78;24.50;;;;;;;;;;10062630;28;20049;-73
2024/03/27 19:25:36;;;;;;;30.90;21.02;;;;;;;;;;10067600;28;20078;-73
2024/03/27 19:30:28;;;;;;;5.28;2.47;;;;;;;;;;10066370;28;20049;-72
2024/03/27 19:35:21;;;;;;;2.67;1.70;;;;;;;;;;10066838;28;20057;-72
2024/03/27 19:40:13;;;;;;;4.30;2.67;;;;;;;;;;10072266;28;20045;-73
2024/03/27 19:45:08;;;;;;;17.23;7.90;;;;;;;;;;10070013;28;20049;-73
2024/03/27 19:50:01;;;;;;;33.85;21.88;;;;;;;;;;10087050;28;20060;-72
2024/03/27 19:54:53;;;;;;;22.35;15.75;;;;;;;;;;10089706;28;20045;-72
2024/03/27 19:59:46;;;;;;;12.88;6.95;;;;;;;;;;10088461;28;20041;-73
2024/03/27 20:04:39;;;;;;;96.03;63.45;;;;;;;;;;10095706;28;20041;-73
2024/03/27 20:09:32;;;;;;;7.43;4.63;;;;;;;;;;10094068;28;20075;-72
2024/03/27 20:14:25;;;;;;;2.42;1.85;;;;;;;;;;10086823;28;20041;-73
2024/03/27 20:19:17;;;;;;;4.03;2.45;;;;;;;;;;10098229;28;20049;-74
2024/03/27 20:24:10;;;;;;;4.20;2.53;;;;;;;;;;10087870;28;20053;-75
2024/03/27 20:29:02;;;;;;;4.55;1.63;;;;;;;;;;10088069;28;20049;-75
2024/03/27 20:33:55;;;;;;;2.38;1.90;;;;;;;;;;10101295;28;20041;-76
2024/03/27 20:38:49;;;;;;;4.68;3.60;;;;;;;;;;10107012;28;20044;-75
2024/03/27 20:43:45;;;;;;;2.90;2.60;;;;;;;;;;10093949;28;20052;-75
2024/03/27 20:48:37;;;;;;;3.70;1.90;;;;;;;;;;10102819;28;20096;-81
2024/03/27 20:53:30;;;;;;;4.13;2.22;;;;;;;;;;10092250;28;20539;-84
2024/03/27 20:58:22;;;;;;;5.40;2.47;;;;;;;;;;10091113;28;20056;-74
2024/03/27 21:03:15;;;;;;;2.95;1.88;;;;;;;;;;10092133;28;20527;-75
2024/03/27 21:08:07;;;;;;;2.97;1.63;;;;;;;;;;10091953;28;20071;-73
2024/03/27 21:12:59;;;;;;;7.20;2.90;;;;;;;;;;10091639;28;20090;-74
2024/03/27 21:17:52;;;;;;;10.02;4.90;;;;;;;;;;10091360;28;20041;-74
2024/03/27 21:22:44;;;;;;;3.45;2.65;;;;;;;;;;10091324;28;20067;-73
2024/03/27 21:27:37;;;;;;;7.20;2.35;;;;;;;;;;10090962;28;20122;-73
2024/03/27 21:32:29;;;;;;;4.65;3.80;;;;;;;;;;10087756;28;20128;-74
2024/03/27 21:37:24;;;;;;;2.05;1.90;;;;;;;;;;10087378;28;20041;-74
2024/03/27 21:42:15;;;;;;;4.07;2.88;;;;;;;;;;10091031;28;20118;-74
2024/03/27 21:47:10;;;;;;;4.32;2.15;;;;;;;;;;10085816;28;20484;-73
2024/03/27 21:52:02;;;;;;;7.68;1.65;;;;;;;;;;10084455;28;20459;-74
2024/03/27 21:56:55;;;;;;;2.33;1.98;;;;;;;;;;10090656;28;20037;-75
2024/03/27 22:01:47;;;;;;;3.80;2.72;;;;;;;;;;10090417;28;20041;-75
2024/03/27 22:06:40;;;;;;;4.85;2.45;;;;;;;;;;10089687;28;20497;-74
2024/03/27 22:11:33;;;;;;;7.32;3.55;;;;;;;;;;10084911;28;20052;-74
2024/03/27 22:16:25;;;;;;;5.85;2.05;;;;;;;;;;10089019;28;20140;-75
2024/03/27 22:21:17;;;;;;;3.92;2.60;;;;;;;;;;10089653;28;20095;-75
2024/03/27 22:26:09;;;;;;;3.60;2.10;;;;;;;;;;10089586;28;20049;-76
2024/03/27 22:31:02;;;;;;;4.45;1.80;;;;;;;;;;10087767;28;20119;-76
2024/03/27 22:35:55;;;;;;;1.73;1.63;;;;;;;;;;10086235;28;20055;-76
2024/03/27 22:40:54;;;;;;;3.28;1.90;;;;;;;;;;10088837;28;20048;-75
2024/03/27 22:45:47;;;;;;;3.03;1.90;;;;;;;;;;10098262;28;20553;-75
2024/03/27 22:50:39;;;;;;;3.50;2.00;;;;;;;;;;10096490;28;20049;-74
2024/03/27 22:55:31;;;;;;;7.03;1.80;;;;;;;;;;10104748;28;20067;-75
2024/03/27 23:00:24;;;;;;;2.88;1.60;;;;;;;;;;10102245;28;20048;-74
2024/03/27 23:05:18;;;;;;;3.55;2.03;;;;;;;;;;10103784;28;20461;-76
2024/03/27 23:10:10;;;;;;;2.92;1.80;;;;;;;;;;10103670;28;20136;-75
2024/03/27 23:15:03;;;;;;;1.55;1.45;;;;;;;;;;10104150;28;20053;-75
2024/03/27 23:19:56;;;;;;;5.93;2.25;;;;;;;;;;10103259;28;20059;-75
2024/03/27 23:24:50;;;;;;;2.30;1.83;;;;;;;;;;10103736;28;20080;-75
2024/03/27 23:29:47;;;;;;;2.35;1.90;;;;;;;;;;10103591;28;20045;-75
2024/03/27 23:34:39;;;;;;;3.22;1.52;;;;;;;;;;10102980;28;20048;-75
2024/03/27 23:39:30;;;;;;;2.95;1.75;;;;;;;;;;10108424;28;20056;-75
2024/03/27 23:44:23;;;;;;;2.45;1.60;;;;;;;;;;10103515;28;20079;-76
2024/03/27 23:49:15;;;;;;;3.17;2.25;;;;;;;;;;10102784;28;20110;-76
2024/03/27 23:54:08;;;;;;;1.83;1.45;;;;;;;;;;10092603;28;20048;-76
2024/03/27 23:59:00;;;;;;;7.60;1.98;;;;;;;;;;10074300;28;20044;-75
